Hornsea, United Kingdom
Current Conditions -  °F | °C
As of 5:50 AM on Tuesday 21 Oct 2014 (Local Time) from EGXV Reporting Station
Light Rain Light Rain  
Wind Chill: 54°   Ceiling: 1100
Heat Index: 54°   Visibility: 6mi
Dew Point: 54°   Wind: 18mph
Humidity: 100%   Direction: 200°SSW
Pressure: 29.29"   Gusts: 30mph
Location:  53.91°N, 0.17°W
Report Text: EGXV 210450Z AUTO 20016G26KT 9999 -RADZ BKN011/// SCT026/// 12/12 Q0992
Loading
Personal Weather Stations






























Interactive Weather Map
Tropical Storm Tracking
New forecast layout! Learn more

10-Day Weather Forecast

Advertisements
Track Severe Weather on mobile